Time;durP1;ratioP1;P1;durP2;ratioP2;P2;SDS_P1;SDS_P2;PMS_P1;PMS_P2;Temp;Humidity;BMP_temperature;BMP_pressure;BME280_temperature;BME280_humidity;BME280_pressure;Samples;Min_cycle;Max_cycle;Signal;HPM_P1;HPM_P2
2023/09/22 00:01:45;;;;;;;;;;;;;;;19.35;58.80;99680.63;4230724;28;19951;-63
2023/09/22 00:03:47;;;;;;;;;;;;;;;19.35;58.32;99685.94;4230221;28;19928;-63
2023/09/22 00:05:52;;;;;;;;;;;;;;;19.35;58.65;99691.28;4245882;28;19924;-63
2023/09/22 00:07:53;;;;;;;;;;;;;;;19.35;58.39;99696.63;4230082;28;19924;-64
2023/09/22 00:09:55;;;;;;;;;;;;;;;19.34;58.29;99693.09;4230322;28;19936;-64
2023/09/22 00:11:57;;;;;;;;;;;;;;;19.34;58.63;99700.25;4230284;28;19924;-64
2023/09/22 00:13:59;;;;;;;;;;;;;;;19.33;58.48;99695.91;4230251;28;19932;-64
2023/09/22 00:16:00;;;;;;;;;;;;;;;19.34;58.54;99689.59;4230290;28;20407;-65
2023/09/22 00:18:02;;;;;;;;;;;;;;;19.33;58.67;99688.72;4229849;28;20030;-65
2023/09/22 00:20:08;;;;;;;;;;;;;;;19.33;58.75;99694.06;4230373;28;19924;-63
2023/09/22 00:22:09;;;;;;;;;;;;;;;19.33;58.62;99696.72;4230357;28;19923;-65
2023/09/22 00:24:11;;;;;;;;;;;;;;;19.31;58.67;99691.53;4230368;28;19965;-64
2023/09/22 00:26:12;;;;;;;;;;;;;;;19.31;58.58;99691.53;4230345;28;19924;-65
2023/09/22 00:28:14;;;;;;;;;;;;;;;19.31;58.36;99698.72;4230212;28;19924;-65
2023/09/22 00:30:16;;;;;;;;;;;;;;;19.30;58.44;99689.84;4230448;28;19924;-66
2023/09/22 00:32:18;;;;;;;;;;;;;;;19.30;58.49;99692.53;4230049;28;19928;-64
2023/09/22 00:34:19;;;;;;;;;;;;;;;19.29;58.65;99695.34;4230025;28;20170;-63
2023/09/22 00:36:21;;;;;;;;;;;;;;;19.29;58.49;99700.66;4230833;28;19928;-64
2023/09/22 00:38:23;;;;;;;;;;;;;;;19.28;58.49;99697.16;4233266;28;19928;-64
2023/09/22 00:40:24;;;;;;;;;;;;;;;19.28;58.47;99705.16;4233296;28;20385;-64
2023/09/22 00:42:26;;;;;;;;;;;;;;;19.28;58.81;99704.31;4233386;28;19931;-64
2023/09/22 00:44:29;;;;;;;;;;;;;;;19.27;58.74;99700.81;4233130;28;19931;-64
2023/09/22 00:46:32;;;;;;;;;;;;;;;19.27;58.71;99690.13;4233224;28;19924;-65
2023/09/22 00:48:35;;;;;;;;;;;;;;;19.26;58.58;99688.44;4232908;28;19927;-64
2023/09/22 00:50:37;;;;;;;;;;;;;;;19.27;58.37;99690.13;4215229;28;19928;-65
2023/09/22 00:52:39;;;;;;;;;;;;;;;19.26;58.62;99696.44;4232984;28;19977;-64
2023/09/22 00:54:41;;;;;;;;;;;;;;;19.27;58.72;99699.94;4232993;28;19924;-63
2023/09/22 00:56:44;;;;;;;;;;;;;;;19.27;58.66;99694.63;4233057;28;19928;-64
2023/09/22 00:58:46;;;;;;;;;;;;;;;19.26;58.61;99701.78;4214793;28;19928;-64
2023/09/22 01:00:48;;;;;;;;;;;;;;;19.26;58.61;99704.44;4232842;28;19981;-65
2023/09/22 01:02:51;;;;;;;;;;;;;;;19.26;58.48;99704.44;4232731;28;19924;-65
2023/09/22 01:04:52;;;;;;;;;;;;;;;19.26;58.58;99700.91;4233162;28;20010;-64
2023/09/22 01:06:55;;;;;;;;;;;;;;;19.26;58.63;99704.44;4232835;28;19995;-64
2023/09/22 01:08:57;;;;;;;;;;;;;;;19.24;58.73;99705.56;4232835;28;19930;-64
2023/09/22 01:11:01;;;;;;;;;;;;;;;19.24;58.50;99700.22;4232855;28;20373;-64
2023/09/22 01:13:05;;;;;;;;;;;;;;;19.23;58.62;99701.22;4232940;28;19924;-64
2023/09/22 01:15:08;;;;;;;;;;;;;;;19.22;58.74;99705.69;4232697;28;19969;-64
2023/09/22 01:17:13;;;;;;;;;;;;;;;19.22;58.42;99705.69;4232156;28;20304;-65
2023/09/22 01:19:16;;;;;;;;;;;;;;;19.21;58.78;99696.03;4232759;28;19981;-64
2023/09/22 01:21:18;;;;;;;;;;;;;;;19.21;58.73;99692.50;4232436;28;19978;-65
2023/09/22 01:23:19;;;;;;;;;;;;;;;19.20;58.71;99691.66;4232772;28;19930;-64
2023/09/22 01:25:22;;;;;;;;;;;;;;;19.20;58.58;99690.81;4232539;28;19923;-65
2023/09/22 01:27:23;;;;;;;;;;;;;;;19.20;58.50;99696.13;4232618;28;20014;-64
2023/09/22 01:29:25;;;;;;;;;;;;;;;19.19;58.72;99681.97;4232383;28;19923;-64
2023/09/22 01:31:26;;;;;;;;;;;;;;;19.18;58.69;99688.28;4232421;28;19947;-64
2023/09/22 01:33:28;;;;;;;;;;;;;;;19.18;58.79;99679.44;4232525;28;19938;-64
2023/09/22 01:35:35;;;;;;;;;;;;;;;19.17;58.65;99686.59;4214289;28;19924;-65
2023/09/22 01:37:39;;;;;;;;;;;;;;;19.17;58.63;99680.44;4232508;28;20389;-64
2023/09/22 01:39:44;;;;;;;;;;;;;;;19.17;58.69;99678.59;4232496;28;20327;-64
2023/09/22 01:41:46;;;;;;;;;;;;;;;19.16;58.64;99684.91;4214260;28;20432;-64
2023/09/22 01:43:48;;;;;;;;;;;;;;;19.15;58.77;99680.56;4232269;28;20749;-64
2023/09/22 01:45:50;;;;;;;;;;;;;;;19.14;58.63;99682.38;4231730;28;19967;-64
2023/09/22 01:47:52;;;;;;;;;;;;;;;19.15;58.43;99685.91;4231828;28;20006;-64
2023/09/22 01:49:54;;;;;;;;;;;;;;;19.15;58.47;99683.25;4214069;28;19953;-64
2023/09/22 01:51:55;;;;;;;;;;;;;;;19.14;58.61;99689.53;4232167;28;19931;-64
2023/09/22 01:53:57;;;;;;;;;;;;;;;19.14;58.45;99684.22;4232086;28;20313;-64
2023/09/22 01:55:58;;;;;;;;;;;;;;;19.13;58.51;99686.03;4232111;28;20010;-64
2023/09/22 01:58:00;;;;;;;;;;;;;;;19.14;58.51;99694.88;4232161;28;19931;-65
2023/09/22 02:00:10;;;;;;;;;;;;;;;19.13;58.25;99685.19;4247489;27;19930;-64
2023/09/22 02:02:12;;;;;;;;;;;;;;;19.13;58.45;99691.34;4232099;28;19931;-65
2023/09/22 02:04:13;;;;;;;;;;;;;;;19.11;58.66;99682.66;4232106;28;19985;-64
2023/09/22 02:06:15;;;;;;;;;;;;;;;19.11;58.52;99687.13;4230851;28;20460;-64
2023/09/22 02:08:17;;;;;;;;;;;;;;;19.11;58.63;99685.34;4232112;28;19981;-64
2023/09/22 02:10:19;;;;;;;;;;;;;;;19.10;58.46;99680.97;4232142;28;20319;-64
2023/09/22 02:12:20;;;;;;;;;;;;;;;19.10;58.44;99685.44;4213704;28;19924;-65
2023/09/22 02:14:22;;;;;;;;;;;;;;;19.09;58.74;99697.06;4231405;28;19924;-64
2023/09/22 02:16:23;;;;;;;;;;;;;;;19.09;58.58;99692.59;4213575;28;19924;-64
2023/09/22 02:18:25;;;;;;;;;;;;;;;19.08;58.56;99696.25;4231599;28;20298;-64
2023/09/22 02:20:27;;;;;;;;;;;;;;;19.09;58.35;99699.75;4231877;28;19923;-65
2023/09/22 02:22:28;;;;;;;;;;;;;;;19.07;58.42;99702.56;4231466;28;20366;-64
2023/09/22 02:24:30;;;;;;;;;;;;;;;19.08;58.56;99701.56;4231674;28;19963;-64
2023/09/22 02:26:31;;;;;;;;;;;;;;;19.07;58.46;99691.88;4231665;28;20438;-64
2023/09/22 02:28:33;;;;;;;;;;;;;;;19.08;58.13;99700.75;4231377;28;20396;-64
2023/09/22 02:30:37;;;;;;;;;;;;;;;19.07;58.29;99704.38;4231499;28;19955;-64
2023/09/22 02:32:40;;;;;;;;;;;;;;;19.06;58.52;99703.53;4231517;28;20473;-64
2023/09/22 02:34:42;;;;;;;;;;;;;;;19.06;58.35;99700.03;4231814;28;19924;-64
2023/09/22 02:36:44;;;;;;;;;;;;;;;19.05;58.38;99699.16;4231486;28;20301;-65
2023/09/22 02:38:46;;;;;;;;;;;;;;;19.05;58.50;99698.34;4231303;28;19927;-64
2023/09/22 02:40:48;;;;;;;;;;;;;;;19.04;58.41;99697.50;4247217;27;19923;-64
2023/09/22 02:42:49;;;;;;;;;;;;;;;19.05;58.49;99703.66;4231269;28;19927;-64
2023/09/22 02:44:51;;;;;;;;;;;;;;;19.04;58.39;99716.16;4230974;28;20078;-64
2023/09/22 02:46:52;;;;;;;;;;;;;;;19.04;58.36;99709.97;4231351;28;20316;-64
2023/09/22 02:48:54;;;;;;;;;;;;;;;19.04;58.50;99718.81;4231367;28;19924;-64
2023/09/22 02:50:56;;;;;;;;;;;;;;;19.04;58.06;99717.97;4231190;28;19924;-64
2023/09/22 02:52:58;;;;;;;;;;;;;;;19.03;58.09;99719.78;4231271;28;19955;-64
2023/09/22 02:54:59;;;;;;;;;;;;;;;19.03;58.17;99716.28;4231202;28;20365;-64
2023/09/22 02:57:03;;;;;;;;;;;;;;;19.03;58.44;99710.94;4247060;27;20373;-65
2023/09/22 02:59:05;;;;;;;;;;;;;;;19.01;58.40;99708.41;4230598;28;19971;-64
2023/09/22 03:01:08;;;;;;;;;;;;;;;19.02;58.30;99715.44;4230264;28;19928;-64
2023/09/22 03:03:14;;;;;;;;;;;;;;;19.01;58.39;99713.75;4230996;28;19924;-64
2023/09/22 03:05:16;;;;;;;;;;;;;;;19.02;58.39;99711.91;4231226;28;19924;-64
2023/09/22 03:07:20;;;;;;;;;;;;;;;19.01;58.41;99710.25;4230970;28;19927;-64
2023/09/22 03:09:22;;;;;;;;;;;;;;;19.01;58.26;99711.09;4230991;28;20474;-64
2023/09/22 03:11:23;;;;;;;;;;;;;;;19.00;58.46;99714.72;4231215;28;19941;-64
2023/09/22 03:13:25;;;;;;;;;;;;;;;18.99;58.49;99710.38;4230526;28;20289;-64
2023/09/22 03:15:27;;;;;;;;;;;;;;;18.99;58.39;99703.22;4230946;28;20342;-63
2023/09/22 03:17:28;;;;;;;;;;;;;;;18.99;58.21;99703.22;4230767;28;19931;-64
2023/09/22 03:19:30;;;;;;;;;;;;;;;18.98;58.52;99693.53;4230869;28;19930;-64
2023/09/22 03:21:32;;;;;;;;;;;;;;;18.98;58.22;99704.19;4230463;28;19969;-64
2023/09/22 03:23:34;;;;;;;;;;;;;;;18.98;58.48;99706.88;4230948;28;19924;-64
2023/09/22 03:25:35;;;;;;;;;;;;;;;18.97;58.23;99699.03;4230705;28;19924;-64
2023/09/22 03:27:37;;;;;;;;;;;;;;;18.96;58.22;99703.50;4230502;28;20346;-64
2023/09/22 03:29:39;;;;;;;;;;;;;;;18.96;58.42;99706.16;4230719;28;19969;-63
2023/09/22 03:31:41;;;;;;;;;;;;;;;18.95;58.31;99709.78;4230530;28;20010;-64
2023/09/22 03:33:45;;;;;;;;;;;;;;;18.95;58.30;99707.13;4230879;28;20277;-64
2023/09/22 03:35:47;;;;;;;;;;;;;;;18.94;58.39;99709.94;4230696;28;20432;-63
2023/09/22 03:37:49;;;;;;;;;;;;;;;18.94;58.39;99705.47;4230483;28;20022;-63
2023/09/22 03:39:51;;;;;;;;;;;;;;;18.94;58.40;99701.94;4230540;28;19928;-64
2023/09/22 03:41:54;;;;;;;;;;;;;;;18.94;58.35;99697.47;4230513;28;19928;-64
2023/09/22 03:43:55;;;;;;;;;;;;;;;18.93;58.12;99695.78;4230456;28;20029;-64
2023/09/22 03:45:57;;;;;;;;;;;;;;;18.93;57.98;99694.91;4230515;28;19954;-64
2023/09/22 03:47:59;;;;;;;;;;;;;;;18.93;58.39;99703.78;4230582;28;20085;-64
2023/09/22 03:50:00;;;;;;;;;;;;;;;18.94;58.42;99710.78;4230773;28;19928;-65
2023/09/22 03:52:04;;;;;;;;;;;;;;;18.93;58.30;99700.25;4230613;28;20345;-64
2023/09/22 03:54:07;;;;;;;;;;;;;;;18.92;58.54;99702.06;4230510;28;19924;-64
2023/09/22 03:56:09;;;;;;;;;;;;;;;18.92;58.45;99699.41;4230173;28;20301;-64
2023/09/22 03:58:11;;;;;;;;;;;;;;;18.92;58.38;99701.22;4230427;28;19974;-64
2023/09/22 04:00:18;;;;;;;;;;;;;;;18.92;58.42;99702.06;4230344;28;19924;-64
2023/09/22 04:02:27;;;;;;;;;;;;;;;18.92;58.01;99698.56;4230194;28;19950;-63
2023/09/22 04:04:29;;;;;;;;;;;;;;;18.91;58.20;99704.84;4230306;28;19971;-64
2023/09/22 04:06:31;;;;;;;;;;;;;;;18.91;58.06;99702.19;4230508;28;20043;-64
2023/09/22 04:08:33;;;;;;;;;;;;;;;18.91;58.09;99704.84;4230258;28;19924;-64
2023/09/22 04:10:35;;;;;;;;;;;;;;;18.90;58.07;99706.66;4245589;28;19958;-64
2023/09/22 04:12:36;;;;;;;;;;;;;;;18.90;58.42;99711.97;4233259;28;20014;-64
2023/09/22 04:14:38;;;;;;;;;;;;;;;18.90;58.02;99709.31;4233760;28;19943;-64
2023/09/22 04:16:44;;;;;;;;;;;;;;;18.91;58.29;99699.53;4216098;28;19924;-64
2023/09/22 04:18:46;;;;;;;;;;;;;;;18.90;58.34;99697.84;4233813;28;19958;-64
2023/09/22 04:20:51;;;;;;;;;;;;;;;18.90;58.02;99703.16;4233510;28;19924;-64
2023/09/22 04:22:53;;;;;;;;;;;;;;;18.89;58.04;99701.47;4233629;28;20285;-64
2023/09/22 04:25:00;;;;;;;;;;;;;;;18.88;58.36;99700.59;4233060;28;19924;-63
2023/09/22 04:27:09;;;;;;;;;;;;;;;18.88;58.03;99705.94;4233350;28;19924;-64
2023/09/22 04:29:11;;;;;;;;;;;;;;;18.88;58.11;99694.44;4249178;27;20017;-64
2023/09/22 04:31:12;;;;;;;;;;;;;;;18.88;58.14;99694.44;4233646;28;19949;-64
2023/09/22 04:33:14;;;;;;;;;;;;;;;18.87;58.04;99692.75;4233369;28;19924;-65
2023/09/22 04:35:16;;;;;;;;;;;;;;;18.86;58.04;99694.59;4233641;28;19924;-64
2023/09/22 04:37:18;;;;;;;;;;;;;;;18.86;58.03;99683.06;4233285;28;19930;-63
2023/09/22 04:39:21;;;;;;;;;;;;;;;18.86;58.07;99683.94;4233021;28;19971;-63
2023/09/22 04:41:23;;;;;;;;;;;;;;;18.87;58.29;99690.97;4233309;28;20003;-64
2023/09/22 04:43:25;;;;;;;;;;;;;;;18.87;58.01;99682.09;4233449;28;19969;-64
2023/09/22 04:45:26;;;;;;;;;;;;;;;18.86;58.35;99683.06;4233329;28;19930;-63
2023/09/22 04:47:28;;;;;;;;;;;;;;;18.85;58.24;99687.56;4233122;28;19923;-63
2023/09/22 04:49:34;;;;;;;;;;;;;;;18.85;58.18;99684.91;4233020;28;20019;-64
2023/09/22 04:51:40;;;;;;;;;;;;;;;18.85;58.25;99695.56;4233058;28;20022;-64
2023/09/22 04:53:47;;;;;;;;;;;;;;;18.85;58.31;99695.56;4232920;28;19930;-64
2023/09/22 04:55:57;;;;;;;;;;;;;;;18.83;57.93;99694.84;4233268;28;19928;-64
2023/09/22 04:57:59;;;;;;;;;;;;;;;18.83;58.21;99697.50;4233056;28;19955;-64
2023/09/22 05:00:04;;;;;;;;;;;;;;;18.83;58.25;99694.84;4232989;28;19976;-64
2023/09/22 05:02:06;;;;;;;;;;;;;;;18.82;57.84;99694.00;4232897;28;20047;-65
2023/09/22 05:04:08;;;;;;;;;;;;;;;18.82;58.08;99699.34;4233147;28;20324;-65
2023/09/22 05:06:10;;;;;;;;;;;;;;;18.82;57.87;99707.34;4232957;28;19958;-64
2023/09/22 05:08:11;;;;;;;;;;;;;;;18.81;57.99;99700.31;4232643;28;19924;-65
2023/09/22 05:10:13;;;;;;;;;;;;;;;18.79;58.18;99696.94;4233097;28;19955;-64
2023/09/22 05:12:14;;;;;;;;;;;;;;;18.80;58.23;99700.44;4233148;28;20025;-64
2023/09/22 05:14:16;;;;;;;;;;;;;;;18.81;58.25;99699.44;4232803;28;19924;-65
2023/09/22 05:16:18;;;;;;;;;;;;;;;18.79;58.34;99696.94;4232673;28;19924;-65
2023/09/22 05:18:20;;;;;;;;;;;;;;;18.79;58.03;99688.09;4232785;28;19963;-65
2023/09/22 05:20:22;;;;;;;;;;;;;;;18.79;58.07;99686.28;4232649;28;19924;-64
2023/09/22 05:22:24;;;;;;;;;;;;;;;18.78;58.29;99695.25;4232409;28;20281;-64
2023/09/22 05:24:26;;;;;;;;;;;;;;;18.79;58.04;99693.44;4231634;28;19927;-64
2023/09/22 05:26:28;;;;;;;;;;;;;;;18.78;58.15;99705.91;4232415;28;19934;-65
2023/09/22 05:28:30;;;;;;;;;;;;;;;18.76;58.08;99694.53;4232569;28;19927;-65
2023/09/22 05:30:31;;;;;;;;;;;;;;;18.78;58.28;99702.41;4232428;28;19924;-64
2023/09/22 05:32:33;;;;;;;;;;;;;;;18.77;58.01;99692.72;4232353;28;19924;-64
2023/09/22 05:34:35;;;;;;;;;;;;;;;18.76;58.39;99689.22;4232541;28;20010;-64
2023/09/22 05:36:37;;;;;;;;;;;;;;;18.77;57.99;99692.72;4232202;28;19923;-65
2023/09/22 05:38:39;;;;;;;;;;;;;;;18.77;58.18;99695.38;4232255;28;20373;-64
2023/09/22 05:40:41;;;;;;;;;;;;;;;18.76;58.19;99694.53;4232307;28;20030;-64
2023/09/22 05:42:43;;;;;;;;;;;;;;;18.76;58.42;99688.34;4232312;28;19966;-65
2023/09/22 05:44:46;;;;;;;;;;;;;;;18.76;58.31;99691.03;4232252;28;19931;-65
2023/09/22 05:46:50;;;;;;;;;;;;;;;18.76;58.28;99696.34;4232340;28;19924;-65
2023/09/22 05:48:57;;;;;;;;;;;;;;;18.76;58.26;99683.03;4232293;28;19973;-64
2023/09/22 05:51:00;;;;;;;;;;;;;;;18.75;58.14;99684.88;4232519;28;19924;-64
2023/09/22 05:53:04;;;;;;;;;;;;;;;18.75;58.12;99686.66;4231861;28;20377;-65
2023/09/22 05:55:06;;;;;;;;;;;;;;;18.74;58.16;99685.84;4232399;28;20351;-65
2023/09/22 05:57:08;;;;;;;;;;;;;;;18.74;57.99;99685.00;4232123;28;19924;-64
2023/09/22 05:59:09;;;;;;;;;;;;;;;18.74;58.04;99680.50;4231935;28;19925;-65
2023/09/22 06:01:12;;;;;;;;;;;;;;;18.74;58.19;99682.34;4232114;28;19992;-64
2023/09/22 06:03:14;;;;;;;;;;;;;;;18.73;58.14;99672.66;4232174;28;19980;-64
2023/09/22 06:05:18;;;;;;;;;;;;;;;18.73;58.13;99670.81;4232266;28;19969;-64
2023/09/22 06:07:20;;;;;;;;;;;;;;;18.73;57.94;99681.47;4231549;28;20052;-66
2023/09/22 06:09:22;;;;;;;;;;;;;;;18.73;57.92;99675.31;4232080;28;19935;-65
2023/09/22 06:11:23;;;;;;;;;;;;;;;18.72;57.87;99679.78;4231993;28;20015;-65
2023/09/22 06:13:25;;;;;;;;;;;;;;;18.71;57.92;99677.28;4231865;28;20300;-65
2023/09/22 06:15:26;;;;;;;;;;;;;;;18.72;57.87;99682.44;4231911;28;19951;-65
2023/09/22 06:17:28;;;;;;;;;;;;;;;18.63;58.14;99672.63;4231750;28;19967;-65
2023/09/22 06:19:29;;;;;;;;;;;;;;;18.72;58.32;99684.28;4231949;28;19955;-65
2023/09/22 06:21:32;;;;;;;;;;;;;;;18.71;57.89;99677.28;4231056;28;19935;-65
2023/09/22 06:23:33;;;;;;;;;;;;;;;18.70;57.97;99691.56;4231879;28;19923;-65
2023/09/22 06:25:35;;;;;;;;;;;;;;;18.70;57.96;99695.09;4231739;28;20292;-64
2023/09/22 06:27:36;;;;;;;;;;;;;;;18.70;57.89;99697.75;4231606;28;19923;-64
2023/09/22 06:29:38;;;;;;;;;;;;;;;18.70;58.29;99688.88;4231565;28;20034;-64
2023/09/22 06:31:40;;;;;;;;;;;;;;;18.70;57.92;99688.88;4231569;28;19923;-64
2023/09/22 06:33:42;;;;;;;;;;;;;;;18.70;58.02;99694.22;4231402;28;19927;-64
2023/09/22 06:35:54;;;;;;;;;;;;;;;18.71;58.32;99696.75;4231129;28;20016;-64
2023/09/22 06:37:56;;;;;;;;;;;;;;;18.71;58.07;99699.41;4231642;28;19928;-65
2023/09/22 06:39:58;;;;;;;;;;;;;;;18.71;58.17;99703.91;4231298;28;19955;-64
2023/09/22 06:41:59;;;;;;;;;;;;;;;18.71;58.22;99690.59;4231403;28;19924;-65
2023/09/22 06:44:02;;;;;;;;;;;;;;;18.71;58.26;99698.56;4231691;28;19927;-65
2023/09/22 06:46:04;;;;;;;;;;;;;;;18.72;58.02;99700.28;4231273;28;19924;-63
2023/09/22 06:48:06;;;;;;;;;;;;;;;18.71;58.21;99695.91;4231266;28;20002;-63
2023/09/22 06:50:08;;;;;;;;;;;;;;;18.70;58.00;99687.09;4230914;28;19938;-64
2023/09/22 06:52:10;;;;;;;;;;;;;;;18.70;58.13;99692.41;4231163;28;19924;-64
2023/09/22 06:54:12;;;;;;;;;;;;;;;18.70;57.95;99692.41;4231265;28;19934;-64
2023/09/22 06:56:14;;;;;;;;;;;;;;;18.70;58.29;99687.09;4231346;28;20389;-65
2023/09/22 06:58:15;;;;;;;;;;;;;;;18.68;58.03;99689.88;4231400;28;19958;-64
2023/09/22 07:00:22;;;;;;;;;;;;;;;18.70;58.24;99688.88;4230958;28;19924;-65
2023/09/22 07:02:24;;;;;;;;;;;;;;;18.71;58.35;99695.91;4231072;28;20002;-65
2023/09/22 07:04:27;;;;;;;;;;;;;;;18.70;58.32;99692.41;4246590;27;19931;-65
2023/09/22 07:06:29;;;;;;;;;;;;;;;18.70;58.16;99689.75;4231112;28;19928;-65
2023/09/22 07:08:30;;;;;;;;;;;;;;;18.71;58.13;99688.75;4231394;28;19931;-65
2023/09/22 07:10:34;;;;;;;;;;;;;;;18.71;58.09;99690.59;4231127;28;19928;-65
2023/09/22 07:12:37;;;;;;;;;;;;;;;18.71;58.06;99687.91;4231012;28;19923;-65
2023/09/22 07:14:38;;;;;;;;;;;;;;;18.70;58.01;99694.22;4231117;28;19947;-65
2023/09/22 07:16:40;;;;;;;;;;;;;;;18.71;58.17;99698.56;4230856;28;19924;-65
2023/09/22 07:18:41;;;;;;;;;;;;;;;18.70;58.19;99695.09;4230772;28;19927;-65
2023/09/22 07:20:47;;;;;;;;;;;;;;;18.70;58.14;99694.22;4230637;28;19931;-65
2023/09/22 07:22:48;;;;;;;;;;;;;;;18.69;58.21;99690.72;4230869;28;19963;-65
2023/09/22 07:24:53;;;;;;;;;;;;;;;18.69;58.41;99690.72;4246733;27;19934;-65
2023/09/22 07:26:54;;;;;;;;;;;;;;;18.70;58.12;99687.09;4230879;28;20315;-65
2023/09/22 07:28:58;;;;;;;;;;;;;;;18.71;58.39;99693.25;4230887;28;19974;-65
2023/09/22 07:30:59;;;;;;;;;;;;;;;18.71;58.26;99693.25;4230858;28;19924;-65
2023/09/22 07:33:01;;;;;;;;;;;;;;;18.69;58.08;99682.72;4230357;28;20007;-65
2023/09/22 07:35:04;;;;;;;;;;;;;;;18.70;58.33;99686.22;4230832;28;20340;-65
2023/09/22 07:37:10;;;;;;;;;;;;;;;18.70;58.54;99687.09;4230995;28;19923;-65
2023/09/22 07:39:21;;;;;;;;;;;;;;;18.69;58.47;99693.38;4230768;28;19981;-65
2023/09/22 07:41:22;;;;;;;;;;;;;;;18.70;58.38;99688.88;4230677;28;19927;-65
2023/09/22 07:43:29;;;;;;;;;;;;;;;18.69;58.04;99682.72;4230601;28;19931;-65
2023/09/22 07:45:30;;;;;;;;;;;;;;;18.68;58.11;99684.53;4212663;28;19924;-64
2023/09/22 07:47:33;;;;;;;;;;;;;;;18.69;58.14;99682.72;4229851;28;19963;-65
2023/09/22 07:49:40;;;;;;;;;;;;;;;18.68;58.10;99676.53;4230689;28;19923;-65
2023/09/22 07:51:42;;;;;;;;;;;;;;;18.70;58.10;99683.56;4230636;28;19996;-65
2023/09/22 07:53:46;;;;;;;;;;;;;;;18.69;58.21;99677.41;4230583;28;19931;-65
2023/09/22 07:55:47;;;;;;;;;;;;;;;18.68;58.43;99679.22;4230532;28;20022;-65
2023/09/22 07:57:50;;;;;;;;;;;;;;;18.67;58.38;99669.53;4230786;28;19928;-64
2023/09/22 07:59:51;;;;;;;;;;;;;;;18.67;58.32;99674.03;4230720;28;20415;-65
2023/09/22 08:01:53;;;;;;;;;;;;;;;18.66;58.47;99683.84;4230612;28;19931;-65
2023/09/22 08:03:55;;;;;;;;;;;;;;;18.66;58.29;99675.00;4230084;28;19929;-65
2023/09/22 08:05:56;;;;;;;;;;;;;;;18.66;58.48;99680.31;4230574;28;20331;-65
2023/09/22 08:07:58;;;;;;;;;;;;;;;18.64;58.52;99677.81;4230484;28;19970;-65
2023/09/22 08:10:00;;;;;;;;;;;;;;;18.64;58.39;99683.13;4230583;28;20030;-65
2023/09/22 08:12:03;;;;;;;;;;;;;;;18.64;58.54;99675.13;4230508;28;19924;-65
2023/09/22 08:14:04;;;;;;;;;;;;;;;18.65;58.25;99667.97;4230363;28;19971;-65
2023/09/22 08:16:07;;;;;;;;;;;;;;;18.64;58.24;99671.63;4230628;28;19962;-65
2023/09/22 08:18:10;;;;;;;;;;;;;;;18.64;58.27;99685.78;4230017;28;20005;-65
2023/09/22 08:20:13;;;;;;;;;;;;;;;18.64;58.35;99679.59;4230412;28;19924;-65
2023/09/22 08:22:15;;;;;;;;;;;;;;;18.64;58.35;99688.44;4230026;28;20278;-65
2023/09/22 08:24:17;;;;;;;;;;;;;;;18.64;58.60;99679.59;4230407;28;19932;-65
2023/09/22 08:26:19;;;;;;;;;;;;;;;18.64;58.45;99688.44;4246263;28;19923;-65
2023/09/22 08:28:20;;;;;;;;;;;;;;;18.64;58.35;99692.91;4229074;28;19959;-65
2023/09/22 08:30:23;;;;;;;;;;;;;;;18.64;58.79;99688.44;4230135;28;20362;-65
2023/09/22 08:32:25;;;;;;;;;;;;;;;18.64;58.50;99699.09;4230223;28;19960;-65
2023/09/22 08:34:29;;;;;;;;;;;;;;;18.63;58.70;99688.59;4230363;28;20401;-65
2023/09/22 08:36:31;;;;;;;;;;;;;;;18.63;58.63;99699.25;4230088;28;20014;-65
2023/09/22 08:38:33;;;;;;;;;;;;;;;18.63;58.35;99710.72;4230177;28;19927;-65
2023/09/22 08:40:34;;;;;;;;;;;;;;;18.62;58.44;99702.88;4230367;28;19976;-65
2023/09/22 08:42:41;;;;;;;;;;;;;;;18.62;58.66;99700.22;4230329;28;19928;-65
2023/09/22 08:44:42;;;;;;;;;;;;;;;18.63;58.74;99704.56;4230025;28;19924;-64
2023/09/22 08:46:44;;;;;;;;;;;;;;;18.63;58.45;99700.06;4230049;28;19963;-65
2023/09/22 08:48:49;;;;;;;;;;;;;;;18.63;58.61;99700.06;4230395;28;19970;-65
2023/09/22 08:50:51;;;;;;;;;;;;;;;18.64;58.48;99703.56;4230220;28;19924;-65
2023/09/22 08:52:52;;;;;;;;;;;;;;;18.64;58.67;99709.75;4230265;28;19958;-65
2023/09/22 08:54:54;;;;;;;;;;;;;;;18.64;58.61;99711.56;4230133;28;19928;-64
2023/09/22 08:56:56;;;;;;;;;;;;;;;18.65;58.87;99719.44;4230132;28;19966;-65
2023/09/22 08:58:58;;;;;;;;;;;;;;;18.66;58.52;99709.63;4231542;28;19928;-65
2023/09/22 09:01:02;;;;;;;;;;;;;;;18.66;58.59;99690.97;4232884;28;20345;-65
2023/09/22 09:03:08;;;;;;;;;;;;;;;18.66;58.47;99696.31;4233347;28;19928;-64
2023/09/22 09:05:24;;;;;;;;;;;;;;;18.66;58.53;99698.97;4232670;28;19924;-66
2023/09/22 09:07:26;;;;;;;;;;;;;;;18.67;58.59;99692.66;4232883;28;20022;-64
2023/09/22 09:09:39;;;;;;;;;;;;;;;18.67;58.62;99688.16;4233172;28;19981;-64
2023/09/22 09:11:56;;;;;;;;;;;;;;;18.68;58.73;99681.88;4233111;28;20373;-65
2023/09/22 09:13:58;;;;;;;;;;;;;;;18.68;58.80;99684.53;4232838;28;20019;-65
2023/09/22 09:16:06;;;;;;;;;;;;;;;18.69;58.36;99677.41;4232644;28;19924;-65
2023/09/22 09:18:11;;;;;;;;;;;;;;;18.70;58.71;99683.56;4233081;28;20020;-65
2023/09/22 09:20:14;;;;;;;;;;;;;;;18.70;58.35;99683.56;4248310;27;19962;-65
2023/09/22 09:22:15;;;;;;;;;;;;;;;18.70;58.36;99689.75;4232430;28;19924;-65
2023/09/22 09:24:22;;;;;;;;;;;;;;;18.73;58.31;99699.28;4232846;28;20310;-65
2023/09/22 09:26:26;;;;;;;;;;;;;;;18.72;58.38;99693.09;4232855;28;19928;-64
2023/09/22 09:28:28;;;;;;;;;;;;;;;18.72;58.26;99698.44;4232664;28;20407;-63
2023/09/22 09:30:31;;;;;;;;;;;;;;;18.72;58.21;99693.09;4232369;28;19924;-64
2023/09/22 09:32:34;;;;;;;;;;;;;;;18.73;58.46;99707.28;4232666;28;20018;-65
2023/09/22 09:34:40;;;;;;;;;;;;;;;18.73;58.28;99697.47;4232650;28;19923;-64
2023/09/22 09:36:42;;;;;;;;;;;;;;;18.73;58.19;99710.78;4232552;28;19947;-64
2023/09/22 09:38:44;;;;;;;;;;;;;;;18.75;58.36;99718.63;4232353;28;19980;-65
2023/09/22 09:40:45;;;;;;;;;;;;;;;18.75;58.07;99716.84;4232377;28;19970;-64
2023/09/22 09:42:48;;;;;;;;;;;;;;;18.74;58.37;99728.44;4232453;28;19954;-65
2023/09/22 09:44:54;;;;;;;;;;;;;;;18.74;58.37;99717.81;4232063;28;20002;-64
2023/09/22 09:47:02;;;;;;;;;;;;;;;18.73;58.26;99726.75;4232316;28;19969;-65
2023/09/22 09:49:05;;;;;;;;;;;;;;;18.73;58.27;99733.91;4232209;28;19977;-65
2023/09/22 09:51:11;;;;;;;;;;;;;;;18.71;58.44;99718.03;4232356;28;19959;-65
2023/09/22 09:53:14;;;;;;;;;;;;;;;18.73;58.17;99728.59;4232262;28;20373;-65
2023/09/22 09:55:17;;;;;;;;;;;;;;;18.73;58.40;99717.94;4232366;28;19927;-65
2023/09/22 09:57:19;;;;;;;;;;;;;;;18.73;58.35;99723.28;4232137;28;19970;-65
2023/09/22 09:59:21;;;;;;;;;;;;;;;18.73;58.19;99728.59;4231970;28;19995;-65
2023/09/22 10:01:23;;;;;;;;;;;;;;;18.63;58.40;99701.91;4232086;28;19924;-65
2023/09/22 10:03:26;;;;;;;;;;;;;;;18.73;58.22;99734.75;4232244;28;19924;-65
2023/09/22 10:05:27;;;;;;;;;;;;;;;18.73;58.42;99731.25;4232011;28;20293;-65
2023/09/22 10:07:29;;;;;;;;;;;;;;;18.74;58.25;99735.63;4231978;28;20306;-65
2023/09/22 10:09:31;;;;;;;;;;;;;;;18.73;58.36;99744.56;4231732;28;19923;-65
2023/09/22 10:11:33;;;;;;;;;;;;;;;18.74;58.44;99743.59;4232469;28;20295;-65
2023/09/22 10:13:35;;;;;;;;;;;;;;;18.74;58.44;99748.94;4213263;28;19924;-65
2023/09/22 10:15:50;;;;;;;;;;;;;;;18.75;58.10;99755.91;4231747;28;19930;-65
2023/09/22 10:17:55;;;;;;;;;;;;;;;18.73;58.46;99772.03;4231669;28;19924;-65
2023/09/22 10:20:24;;;;;;;;;;;;;;;18.74;58.29;99770.25;4231977;28;20364;-65
2023/09/22 10:22:23;;;;;;;;;;;;;;;18.75;58.13;99787.88;4231054;28;19977;-65
2023/09/22 10:24:32;;;;;;;;;;;;;;;18.68;58.38;99787.56;4231610;28;19927;-66
2023/09/22 10:26:34;;;;;;;;;;;;;;;18.75;58.36;99803.88;4231452;28;19972;-65
2023/09/22 10:28:36;;;;;;;;;;;;;;;18.74;58.23;99819.03;4231364;28;19924;-65
2023/09/22 10:30:43;;;;;;;;;;;;;;;18.74;58.00;99807.53;4231589;28;19974;-65
2023/09/22 10:32:45;;;;;;;;;;;;;;;18.75;58.18;99819.84;4231388;28;19928;-65
2023/09/22 10:34:50;;;;;;;;;;;;;;;18.74;58.50;99821.69;4231691;28;19958;-64
2023/09/22 10:36:52;;;;;;;;;;;;;;;18.74;58.13;99826.19;4231189;28;19963;-64
2023/09/22 10:38:55;;;;;;;;;;;;;;;18.73;58.15;99830.63;4231461;28;19931;-64
2023/09/22 10:41:00;;;;;;;;;;;;;;;18.72;58.41;99831.59;4231326;28;19927;-65